釜山 の空港の天気 - METARとTAF

金海国際空港 ( RKPK / PUS ) - 韓国 釜山広域市
飛行場実況気象(Metar)
観測時間01/24 21:00 KST (01/24 12:00 UTC)
風向・風速北 5m/s
視程10km以上
天気現象
全天の8割程度の雲 雲底高度 910m
全天の8割程度の雲 雲底高度 6100m
気温10℃
湿度71%
気圧1030hPa
METARRKPK 241200Z 01009KT 9999 BKN030 BKN200 10/05 Q1030
過去の天気等 Google飛行場航空写真 Wunderground天気予報

過去48時間のMETAR

飛行場予報(TAF)
発表時間: 1/24 20:00 KST (1/24 11:00 UTC)
予報対象時間: 24日21時 KST ~ 26日3時 KST
風向・風速北北東 3m/s
視程10km以上
全天の8割程度の雲 雲底高度 910m
全天の8割程度の雲 雲底高度 6100m
25日8時 KST ~ 25日9時 KST に徐々に
全天の4割程度の雲 雲底高度 910m
全天の8割程度の雲 雲底高度 6100m
TAF RKPK 241100Z 2412/2518 03006KT 9999 BKN030 BKN200 TN02/2421Z TX09/2506Z
BECMG 2423/2424 SCT030 BKN200